createdAt,value
2019-03-08T00:01:13.018Z,1.10
2019-03-08T00:03:40.582Z,0.90
2019-03-08T00:06:08.184Z,1.20
2019-03-08T00:08:35.756Z,1.00
2019-03-08T00:11:03.368Z,1.20
2019-03-08T00:13:30.974Z,1.17
2019-03-08T00:15:59.292Z,1.00
2019-03-08T00:18:26.895Z,1.43
2019-03-08T00:20:55.237Z,1.33
2019-03-08T00:23:22.860Z,1.20
2019-03-08T00:25:50.428Z,0.90
2019-03-08T00:28:18.000Z,0.80
2019-03-08T00:30:45.598Z,0.90
2019-03-08T00:33:13.191Z,0.97
2019-03-08T00:35:40.798Z,1.30
2019-03-08T00:38:08.364Z,1.00
2019-03-08T00:40:35.942Z,1.00
2019-03-08T00:43:03.538Z,0.87
2019-03-08T00:45:31.115Z,1.30
2019-03-08T00:47:58.730Z,0.93
2019-03-08T00:50:26.304Z,1.17
2019-03-08T00:52:53.884Z,1.10
2019-03-08T00:55:21.486Z,0.90
2019-03-08T00:57:49.059Z,1.37
2019-03-08T01:00:19.677Z,1.40
2019-03-08T01:02:47.259Z,1.53
2019-03-08T01:05:14.832Z,1.40
2019-03-08T01:07:42.432Z,1.67
2019-03-08T01:10:10.006Z,1.50
2019-03-08T01:12:37.611Z,1.70
2019-03-08T01:15:05.207Z,1.70
2019-03-08T01:17:36.256Z,2.20
2019-03-08T01:20:03.861Z,1.60
2019-03-08T01:22:31.447Z,1.80
2019-03-08T01:24:59.507Z,2.27
2019-03-08T01:27:27.085Z,2.20
2019-03-08T01:29:54.659Z,1.67
2019-03-08T01:32:23.029Z,1.60
2019-03-08T01:34:50.607Z,1.87
2019-03-08T01:37:18.222Z,1.60
2019-03-08T01:39:45.804Z,2.20
2019-03-08T01:42:13.378Z,2.55
2019-03-08T01:44:41.748Z,2.03
2019-03-08T01:47:09.323Z,2.00
2019-03-08T01:49:37.698Z,1.70
2019-03-08T01:52:05.264Z,2.50
2019-03-08T01:54:32.841Z,2.20
2019-03-08T01:57:00.451Z,2.10
2019-03-08T01:59:28.036Z,1.90
2019-03-08T02:01:55.795Z,1.80
2019-03-08T02:04:23.369Z,2.03
2019-03-08T02:06:51.710Z,1.90
2019-03-08T02:09:19.315Z,1.70
2019-03-08T02:11:47.654Z,1.67
2019-03-08T02:14:15.262Z,1.80
2019-03-08T02:16:43.097Z,1.77
2019-03-08T02:19:10.674Z,1.73
2019-03-08T02:21:38.271Z,1.70
2019-03-08T02:24:05.849Z,1.87
2019-03-08T02:26:33.458Z,1.90
2019-03-08T02:29:01.032Z,1.97
2019-03-08T02:31:29.382Z,1.80
2019-03-08T02:33:56.980Z,2.50
2019-03-08T02:36:25.320Z,1.83
2019-03-08T02:38:52.952Z,1.90
2019-03-08T02:41:20.523Z,1.90
2019-03-08T02:43:48.098Z,1.70
2019-03-08T02:46:15.695Z,2.07
2019-03-08T02:48:44.043Z,2.00
2019-03-08T02:51:11.651Z,2.10
2019-03-08T02:53:39.989Z,2.33
2019-03-08T02:56:07.565Z,2.17
2019-03-08T02:58:35.167Z,2.10
2019-03-08T03:01:02.742Z,1.97
2019-03-08T03:03:30.349Z,1.90
2019-03-08T03:05:57.932Z,2.10
2019-03-08T03:08:26.306Z,1.83
2019-03-08T03:10:53.880Z,2.10
2019-03-08T03:13:22.219Z,2.30
2019-03-08T03:15:49.805Z,2.60
2019-03-08T03:18:17.403Z,2.10
2019-03-08T03:20:44.981Z,2.00
2019-03-08T03:23:12.557Z,1.70
2019-03-08T03:25:40.159Z,2.03
2019-03-08T03:28:08.506Z,2.00
2019-03-08T03:30:36.087Z,2.03
2019-03-08T03:33:03.697Z,1.73
2019-03-08T03:35:31.265Z,1.60
2019-03-08T03:37:58.848Z,1.87
2019-03-08T03:40:26.494Z,2.13
2019-03-08T03:42:54.071Z,1.83
2019-03-08T03:45:21.647Z,1.83
2019-03-08T03:47:49.263Z,1.90
2019-03-08T03:50:18.421Z,1.87
2019-03-08T03:52:44.400Z,2.10
2019-03-08T03:55:11.997Z,1.80
2019-03-08T03:57:39.567Z,1.90
2019-03-08T04:00:11.770Z,2.50
2019-03-08T04:02:38.792Z,2.60
2019-03-08T04:05:07.134Z,2.13
2019-03-08T04:07:34.742Z,2.13
2019-03-08T04:10:03.087Z,2.17
2019-03-08T04:12:30.671Z,2.00
2019-03-08T04:14:59.038Z,2.20
2019-03-08T04:17:26.622Z,1.93
2019-03-08T04:19:54.996Z,2.80
2019-03-08T04:22:23.341Z,2.40
2019-03-08T04:24:50.933Z,2.03
2019-03-08T04:27:18.531Z,2.62
2019-03-08T04:29:46.109Z,2.00
2019-03-08T04:32:13.709Z,1.90
2019-03-08T04:34:41.294Z,2.07
2019-03-08T04:37:09.705Z,1.90
2019-03-08T04:39:37.281Z,1.90
2019-03-08T04:42:04.858Z,1.47
2019-03-08T04:44:32.449Z,1.83
2019-03-08T04:47:00.797Z,2.50
2019-03-08T04:49:28.402Z,2.23
2019-03-08T04:51:56.877Z,2.40
2019-03-08T04:54:25.235Z,2.22
2019-03-08T04:56:52.825Z,2.30
2019-03-08T04:59:21.166Z,2.10
2019-03-08T05:01:48.922Z,1.60
2019-03-08T05:04:16.497Z,2.03
2019-03-08T05:06:44.072Z,1.80
2019-03-08T05:09:11.669Z,2.00
2019-03-08T05:11:39.242Z,2.10
2019-03-08T05:14:06.886Z,2.07
2019-03-08T05:16:35.227Z,1.83
2019-03-08T05:19:02.802Z,1.90
2019-03-08T05:21:31.183Z,2.40
2019-03-08T05:23:59.534Z,2.23
2019-03-08T05:26:27.169Z,2.23
2019-03-08T05:28:54.803Z,2.23
2019-03-08T05:31:22.328Z,2.10
2019-03-08T05:33:49.967Z,2.17
2019-03-08T05:36:17.542Z,2.67
2019-03-08T05:38:45.134Z,3.10
2019-03-08T05:41:12.739Z,2.30
2019-03-08T05:43:40.359Z,3.30
2019-03-08T05:46:07.944Z,3.93
2019-03-08T05:48:35.558Z,4.07
2019-03-08T05:51:03.137Z,5.00
2019-03-08T05:53:30.716Z,5.00
2019-03-08T05:55:59.150Z,5.93
2019-03-08T05:58:26.727Z,5.53
2019-03-08T06:00:54.311Z,6.13
2019-03-08T06:03:22.692Z,6.03
2019-03-08T06:05:50.267Z,6.00
2019-03-08T06:08:17.898Z,5.67
2019-03-08T06:10:45.541Z,6.60
2019-03-08T06:13:13.123Z,7.17
2019-03-08T06:15:40.737Z,6.70
2019-03-08T06:18:08.318Z,8.50
2019-03-08T06:20:35.949Z,9.05
2019-03-08T06:23:19.281Z,7.27
2019-03-08T06:25:32.354Z,6.73
2019-03-08T06:27:59.951Z,6.80
2019-03-08T06:30:28.308Z,5.87
2019-03-08T06:32:55.913Z,6.17
2019-03-08T06:35:23.583Z,6.90
2019-03-08T06:37:51.154Z,6.70
2019-03-08T06:40:18.791Z,6.20
2019-03-08T06:42:46.334Z,6.03
2019-03-08T06:45:17.116Z,5.50
2019-03-08T06:47:44.729Z,5.10
2019-03-08T06:50:13.072Z,5.10
2019-03-08T06:52:40.650Z,4.63
2019-03-08T06:55:08.544Z,4.33
2019-03-08T06:57:36.894Z,4.97
2019-03-08T07:00:13.159Z,4.50
2019-03-08T07:02:40.750Z,4.43
2019-03-08T07:05:08.365Z,5.10
2019-03-08T07:07:35.983Z,4.17
2019-03-08T07:10:03.557Z,4.07
2019-03-08T07:12:31.163Z,4.30
2019-03-08T07:14:58.761Z,5.50
2019-03-08T07:17:27.099Z,5.30
2019-03-08T07:20:01.211Z,5.37
2019-03-08T07:22:40.801Z,5.10
2019-03-08T07:25:12.054Z,4.63
2019-03-08T07:27:49.020Z,4.53
2019-03-08T07:30:31.261Z,5.13
2019-03-08T07:33:04.847Z,4.20
2019-03-08T07:35:32.452Z,4.30
2019-03-08T07:38:08.795Z,4.00
2019-03-08T07:40:45.329Z,4.80
2019-03-08T07:43:19.297Z,4.90
2019-03-08T07:46:01.911Z,4.17
2019-03-08T07:48:32.297Z,3.60
2019-03-08T07:51:00.731Z,3.37
2019-03-08T07:53:28.311Z,2.73
2019-03-08T07:55:55.892Z,3.53
2019-03-08T07:58:33.668Z,3.40
2019-03-08T08:01:16.255Z,3.03
2019-03-08T08:03:58.880Z,3.00
2019-03-08T08:06:26.459Z,2.40
2019-03-08T08:09:12.217Z,2.70
2019-03-08T08:11:57.870Z,3.78
2019-03-08T08:14:39.735Z,2.37
2019-03-08T08:17:24.295Z,2.50
2019-03-08T08:19:51.942Z,3.10
2019-03-08T08:22:37.307Z,2.57
2019-03-08T08:25:04.936Z,2.63
2019-03-08T08:27:35.343Z,2.83
2019-03-08T08:30:03.681Z,2.17
2019-03-08T08:32:34.177Z,2.77
2019-03-08T08:35:19.836Z,2.20
2019-03-08T08:38:03.338Z,2.20
2019-03-08T08:40:30.909Z,2.70
2019-03-08T08:42:58.511Z,2.30
2019-03-08T08:45:43.659Z,3.50
2019-03-08T08:48:12.033Z,3.90
2019-03-08T08:50:39.615Z,2.60
2019-03-08T08:53:07.990Z,2.93
2019-03-08T08:55:39.258Z,2.67
2019-03-08T08:58:12.309Z,2.20
2019-03-08T09:00:42.943Z,2.43
2019-03-08T09:03:13.307Z,3.00
2019-03-08T09:05:49.419Z,3.00
2019-03-08T09:08:25.566Z,2.73
2019-03-08T09:10:53.143Z,2.60
2019-03-08T09:13:29.499Z,2.33
2019-03-08T09:16:09.099Z,2.20
2019-03-08T09:18:36.716Z,2.00
2019-03-08T09:21:22.211Z,1.63
2019-03-08T09:23:58.428Z,1.83
2019-03-08T09:26:33.121Z,0.90
2019-03-08T09:28:59.426Z,1.10
2019-03-08T09:31:44.646Z,0.80
2019-03-08T09:34:17.821Z,0.80
2019-03-08T09:36:48.869Z,1.00
2019-03-08T09:39:25.846Z,0.90
2019-03-08T09:41:53.442Z,1.13
2019-03-08T09:44:33.160Z,0.70
2019-03-08T09:47:01.535Z,1.53
2019-03-08T09:49:38.921Z,1.03
2019-03-08T09:52:16.477Z,0.90
2019-03-08T09:54:46.670Z,0.80
2019-03-08T09:57:20.120Z,0.80
2019-03-08T09:59:47.684Z,0.63
2019-03-08T10:02:21.080Z,0.80
2019-03-08T10:05:06.511Z,0.83
2019-03-08T10:07:42.847Z,0.83
2019-03-08T10:10:13.166Z,1.10
2019-03-08T10:12:50.521Z,1.12
2019-03-08T10:15:36.560Z,1.00
2019-03-08T10:18:07.392Z,0.60
2019-03-08T10:20:35.733Z,0.77
2019-03-08T10:23:21.814Z,0.67
2019-03-08T10:26:07.457Z,0.80
2019-03-08T10:28:37.872Z,0.77
2019-03-08T10:31:24.224Z,1.70
2019-03-08T10:34:09.737Z,1.30
2019-03-08T10:36:37.327Z,0.83
2019-03-08T10:39:23.396Z,1.12
2019-03-08T10:41:50.982Z,1.20
2019-03-08T10:44:27.535Z,1.60
2019-03-08T10:47:12.977Z,1.67
2019-03-08T10:49:43.330Z,2.45
2019-03-08T10:52:17.267Z,1.70
2019-03-08T10:54:47.068Z,1.60
2019-03-08T10:57:32.690Z,0.93
2019-03-08T11:00:09.283Z,1.40
2019-03-08T11:02:36.902Z,1.40
2019-03-08T11:05:04.513Z,1.53
2019-03-08T11:07:36.271Z,1.80
2019-03-08T11:10:21.966Z,1.13
2019-03-08T11:12:49.568Z,1.30
2019-03-08T11:15:26.933Z,1.70
2019-03-08T11:18:03.277Z,1.30
2019-03-08T11:20:46.466Z,1.40
2019-03-08T11:23:25.454Z,1.77
2019-03-08T11:26:04.842Z,1.50
2019-03-08T11:28:50.511Z,1.00
2019-03-08T11:31:34.910Z,1.43
2019-03-08T11:34:04.356Z,1.70
2019-03-08T11:36:34.951Z,1.30
2019-03-08T11:39:14.545Z,1.70
2019-03-08T11:41:57.690Z,1.50
2019-03-08T11:44:31.084Z,1.20
2019-03-08T11:47:05.888Z,1.40
2019-03-08T11:49:36.204Z,1.47
2019-03-08T11:52:21.851Z,1.10
2019-03-08T11:54:49.427Z,1.13
2019-03-08T11:57:23.051Z,1.47
2019-03-08T12:00:02.961Z,1.10
2019-03-08T12:02:38.037Z,2.12
2019-03-08T12:05:09.903Z,1.37
2019-03-08T12:07:40.248Z,1.37
2019-03-08T12:10:26.208Z,1.30
2019-03-08T12:12:53.789Z,2.00
2019-03-08T12:15:21.373Z,3.20
2019-03-08T12:18:05.909Z,1.70
2019-03-08T12:20:36.331Z,1.77
2019-03-08T12:23:03.904Z,2.22
2019-03-08T12:25:31.978Z,2.20
2019-03-08T12:28:02.226Z,1.90
2019-03-08T12:30:29.805Z,1.57
2019-03-08T12:33:09.425Z,2.00
2019-03-08T12:35:49.825Z,1.70
2019-03-08T12:38:19.903Z,1.93
2019-03-08T12:40:51.206Z,1.93
2019-03-08T12:43:18.867Z,2.27
2019-03-08T12:45:46.461Z,2.23
2019-03-08T12:48:24.145Z,2.60
2019-03-08T12:50:59.471Z,2.20
2019-03-08T12:53:32.835Z,3.17
2019-03-08T12:56:00.439Z,2.80
2019-03-08T12:58:40.915Z,2.57
2019-03-08T13:01:20.224Z,2.57
2019-03-08T13:04:02.683Z,3.42
2019-03-08T13:06:33.764Z,3.23
2019-03-08T13:09:01.339Z,3.23
2019-03-08T13:11:33.109Z,3.40
2019-03-08T13:13:56.529Z,4.00
2019-03-08T13:16:25.113Z,3.10
2019-03-08T13:18:53.468Z,3.07
2019-03-08T13:21:21.050Z,1.93
2019-03-08T13:23:48.710Z,1.43
2019-03-08T13:26:17.056Z,1.50
2019-03-08T13:28:44.629Z,1.40
2019-03-08T13:31:12.252Z,1.30
2019-03-08T13:33:39.804Z,1.23
2019-03-08T13:36:08.223Z,0.97
2019-03-08T13:38:35.839Z,0.67
2019-03-08T13:41:03.393Z,0.80
2019-03-08T13:43:31.032Z,0.73
2019-03-08T13:45:59.378Z,0.70
2019-03-08T13:48:26.951Z,0.70
2019-03-08T13:50:55.935Z,0.83
2019-03-08T13:53:23.503Z,0.70
2019-03-08T13:55:51.080Z,0.50
2019-03-08T13:58:18.722Z,1.23
2019-03-08T14:00:46.326Z,1.40
2019-03-08T14:03:13.922Z,0.93
2019-03-08T14:05:41.533Z,0.97
2019-03-08T14:08:09.107Z,0.70
2019-03-08T14:10:37.454Z,0.80
2019-03-08T14:13:05.160Z,0.60
2019-03-08T14:15:32.725Z,0.67
2019-03-08T14:18:00.302Z,1.00
2019-03-08T14:20:28.802Z,0.73
2019-03-08T14:22:56.661Z,0.83
2019-03-08T14:25:25.642Z,0.87
2019-03-08T14:27:54.562Z,0.80
2019-03-08T14:30:23.531Z,1.10
2019-03-08T14:32:52.640Z,1.30
2019-03-08T14:35:20.770Z,0.90
2019-03-08T14:37:52.410Z,1.10
2019-03-08T14:40:36.698Z,0.87
2019-03-08T14:43:04.283Z,1.27
2019-03-08T14:45:44.641Z,1.40
2019-03-08T14:48:09.587Z,1.47
2019-03-08T14:50:37.075Z,1.20
2019-03-08T14:53:04.141Z,1.73
2019-03-08T14:55:31.750Z,1.80
2019-03-08T14:58:00.499Z,1.57
2019-03-08T15:00:29.059Z,2.25
2019-03-08T15:02:54.539Z,2.57
2019-03-08T15:05:22.172Z,3.00
2019-03-08T15:07:49.782Z,2.23
2019-03-08T15:10:17.334Z,1.90
2019-03-08T15:12:49.015Z,1.77
2019-03-08T15:15:12.844Z,2.13
2019-03-08T15:17:40.916Z,1.80
2019-03-08T15:20:15.423Z,1.87
2019-03-08T15:22:42.090Z,1.17
2019-03-08T15:25:12.591Z,1.70
2019-03-08T15:27:38.449Z,1.73
2019-03-08T15:30:11.774Z,1.90
2019-03-08T15:32:40.118Z,1.75
2019-03-08T15:35:07.781Z,1.63
2019-03-08T15:37:43.983Z,1.53
2019-03-08T15:40:02.945Z,1.60
2019-03-08T15:42:30.546Z,2.10
2019-03-08T15:45:01.654Z,1.67
2019-03-08T15:47:25.744Z,2.37
2019-03-08T15:49:53.319Z,2.00
2019-03-08T15:52:20.897Z,2.07
2019-03-08T15:54:48.523Z,1.97
2019-03-08T15:57:16.099Z,1.97
2019-03-08T15:59:43.678Z,1.53
2019-03-08T16:02:11.336Z,2.30
2019-03-08T16:04:38.948Z,2.00
2019-03-08T16:07:06.475Z,2.07
2019-03-08T16:09:34.077Z,1.87
2019-03-08T16:12:02.429Z,2.13
2019-03-08T16:14:30.051Z,2.73
2019-03-08T16:16:57.636Z,2.60
2019-03-08T16:19:26.226Z,2.40
2019-03-08T16:21:52.858Z,2.13
2019-03-08T16:24:20.454Z,1.80
2019-03-08T16:26:48.031Z,1.80
2019-03-08T16:29:16.445Z,2.10
2019-03-08T16:31:44.001Z,2.93
2019-03-08T16:34:11.576Z,2.90
2019-03-08T16:36:42.000Z,3.00
2019-03-08T16:39:12.303Z,3.13
2019-03-08T16:41:54.825Z,2.87
2019-03-08T16:44:22.401Z,4.07
2019-03-08T16:46:55.714Z,3.30
2019-03-08T16:49:26.000Z,2.20
2019-03-08T16:52:11.948Z,2.20
2019-03-08T16:54:45.542Z,3.03
2019-03-08T16:57:13.132Z,3.03
2019-03-08T16:59:41.507Z,3.60
2019-03-08T17:02:18.328Z,3.50
2019-03-08T17:04:45.926Z,3.60
2019-03-08T17:07:13.498Z,3.33
2019-03-08T17:09:42.728Z,5.68
2019-03-08T17:12:11.341Z,3.57
2019-03-08T17:14:41.959Z,3.03
2019-03-08T17:17:21.485Z,2.20
2019-03-08T17:19:51.993Z,2.73
2019-03-08T17:22:28.499Z,2.50
2019-03-08T17:25:14.269Z,2.80
2019-03-08T17:27:45.428Z,2.47
2019-03-08T17:30:15.970Z,2.50
2019-03-08T17:32:58.927Z,3.10
2019-03-08T17:35:26.518Z,2.50
2019-03-08T17:37:54.106Z,3.40
2019-03-08T17:40:24.994Z,4.00
2019-03-08T17:43:07.688Z,3.60
2019-03-08T17:45:43.854Z,2.80
2019-03-08T17:48:11.429Z,3.23
2019-03-08T17:50:42.259Z,3.93
2019-03-08T17:53:09.844Z,8.53
2019-03-08T17:55:55.287Z,4.27
2019-03-08T17:58:25.660Z,3.70
2019-03-08T18:00:53.257Z,3.07
2019-03-08T18:03:32.899Z,3.33
2019-03-08T18:06:04.097Z,9.73
2019-03-08T18:08:31.673Z,3.20
2019-03-08T18:11:18.885Z,3.20
2019-03-08T18:13:46.457Z,3.10
2019-03-08T18:16:14.807Z,2.30
2019-03-08T18:19:00.547Z,4.40
2019-03-08T18:21:28.126Z,6.60
2019-03-08T18:23:58.197Z,2.67
2019-03-08T18:26:25.817Z,2.63
2019-03-08T18:29:11.348Z,2.13
2019-03-08T18:31:41.891Z,2.40
2019-03-08T18:34:10.286Z,3.40
2019-03-08T18:36:55.889Z,3.77
2019-03-08T18:39:29.392Z,2.50
2019-03-08T18:42:02.689Z,3.15
2019-03-08T18:44:30.258Z,2.00
2019-03-08T18:47:03.938Z,2.63
2019-03-08T18:49:44.058Z,1.80
2019-03-08T18:52:11.691Z,1.90
2019-03-08T18:54:39.271Z,1.73
2019-03-08T18:57:21.825Z,2.10
2019-03-08T18:59:55.279Z,2.87
2019-03-08T19:02:41.117Z,2.40
2019-03-08T19:05:08.700Z,2.50
2019-03-08T19:07:38.874Z,2.20
2019-03-08T19:10:09.561Z,1.90
2019-03-08T19:12:55.070Z,2.10
2019-03-08T19:15:34.563Z,2.50
2019-03-08T19:18:20.041Z,2.67
2019-03-08T19:20:56.796Z,2.30
2019-03-08T19:23:36.793Z,2.60
2019-03-08T19:26:04.396Z,1.77
2019-03-08T19:28:31.981Z,2.13
2019-03-08T19:31:00.342Z,1.90
2019-03-08T19:33:43.524Z,2.40
2019-03-08T19:36:11.215Z,2.00
2019-03-08T19:38:41.368Z,1.63
2019-03-08T19:41:09.711Z,2.25
2019-03-08T19:43:49.529Z,2.00
2019-03-08T19:46:22.969Z,2.60
2019-03-08T19:48:53.089Z,2.00
2019-03-08T19:51:20.641Z,2.23
2019-03-08T19:53:49.030Z,1.50
2019-03-08T19:56:16.600Z,1.73
2019-03-08T19:59:02.154Z,2.37
2019-03-08T20:01:32.303Z,2.30
2019-03-08T20:04:14.815Z,1.60
2019-03-08T20:06:42.409Z,2.10
2019-03-08T20:09:10.959Z,2.00
2019-03-08T20:11:41.229Z,1.60
2019-03-08T20:14:14.623Z,2.70
2019-03-08T20:16:42.212Z,2.33
2019-03-08T20:19:24.861Z,2.17
2019-03-08T20:22:07.606Z,3.27
2019-03-08T20:24:35.208Z,2.23
2019-03-08T20:27:05.218Z,1.90
2019-03-08T20:29:32.822Z,2.27
2019-03-08T20:32:06.196Z,2.40
2019-03-08T20:34:49.021Z,2.10
2019-03-08T20:37:19.403Z,2.30
2019-03-08T20:39:59.155Z,2.30
2019-03-08T20:42:44.755Z,2.13
2019-03-08T20:45:12.383Z,1.80
2019-03-08T20:47:39.921Z,2.10
2019-03-08T20:50:08.298Z,2.37
2019-03-08T20:52:35.878Z,2.10
2019-03-08T20:55:04.299Z,1.87
2019-03-08T20:57:31.891Z,1.80
2019-03-08T20:59:59.479Z,1.77
2019-03-08T21:02:27.850Z,2.40
2019-03-08T21:04:55.427Z,3.20
2019-03-08T21:07:23.856Z,2.37
2019-03-08T21:09:51.432Z,2.70
2019-03-08T21:12:19.011Z,2.70
2019-03-08T21:14:46.673Z,2.65
2019-03-08T21:17:14.232Z,1.90
2019-03-08T21:19:41.819Z,2.60
2019-03-08T21:22:09.450Z,2.53
2019-03-08T21:24:37.027Z,2.23
2019-03-08T21:27:04.611Z,2.00
2019-03-08T21:29:32.592Z,2.60
2019-03-08T21:32:00.168Z,1.80
2019-03-08T21:34:27.746Z,2.03
2019-03-08T21:36:55.411Z,2.10
2019-03-08T21:39:22.955Z,2.77
2019-03-08T21:41:50.535Z,2.67
2019-03-08T21:44:19.035Z,3.10
2019-03-08T21:46:46.613Z,2.23
2019-03-08T21:49:14.957Z,2.30
2019-03-08T21:51:42.576Z,1.50
2019-03-08T21:54:10.161Z,2.03
2019-03-08T21:56:37.784Z,1.97
2019-03-08T21:59:05.835Z,2.00
2019-03-08T22:01:33.406Z,1.47
2019-03-08T22:04:01.029Z,2.00
2019-03-08T22:06:28.606Z,1.90
2019-03-08T22:08:56.228Z,1.60
2019-03-08T22:11:23.815Z,2.00
2019-03-08T22:13:51.407Z,2.10
2019-03-08T22:16:19.042Z,1.80
2019-03-08T22:18:46.634Z,2.37
2019-03-08T22:21:14.215Z,2.20
2019-03-08T22:23:42.957Z,1.73
2019-03-08T22:26:10.527Z,1.90
2019-03-08T22:28:38.116Z,2.05
2019-03-08T22:31:06.489Z,2.00
2019-03-08T22:33:34.063Z,2.23
2019-03-08T22:36:01.650Z,2.80
2019-03-08T22:38:29.249Z,2.10
2019-03-08T22:40:56.843Z,2.30
2019-03-08T22:43:25.190Z,2.20
2019-03-08T22:45:52.816Z,2.00
2019-03-08T22:48:20.397Z,2.13
2019-03-08T22:50:47.974Z,2.30
2019-03-08T22:53:16.334Z,2.40
2019-03-08T22:55:43.911Z,1.73
2019-03-08T22:58:11.913Z,2.17
2019-03-08T23:00:45.592Z,2.27
2019-03-08T23:03:13.174Z,2.20
2019-03-08T23:05:40.847Z,1.70
2019-03-08T23:08:08.426Z,1.50
2019-03-08T23:10:36.761Z,2.33
2019-03-08T23:13:04.363Z,1.60
2019-03-08T23:15:32.711Z,1.83
2019-03-08T23:18:00.360Z,1.90
2019-03-08T23:20:27.934Z,2.40
2019-03-08T23:22:55.514Z,1.63
2019-03-08T23:25:23.123Z,2.33
2019-03-08T23:28:09.027Z,1.60
2019-03-08T23:30:36.627Z,1.70
2019-03-08T23:33:04.241Z,1.47
2019-03-08T23:35:31.816Z,1.93
2019-03-08T23:37:59.400Z,1.93
2019-03-08T23:40:27.008Z,1.90
2019-03-08T23:42:54.584Z,1.43
2019-03-08T23:45:22.156Z,1.53
2019-03-08T23:47:49.751Z,1.70
2019-03-08T23:50:17.326Z,1.60
2019-03-08T23:52:45.714Z,1.98
2019-03-08T23:55:13.283Z,1.77
2019-03-08T23:57:41.626Z,1.97
